Ashley, Louisiana
Current Conditions -  °F | °C
As of 10:53 PM on Sunday 21 Dec 2014 (Local Time) from KTVR Reporting Station
Scattered Clouds Scattered Clouds  
Wind Chill: 10°   Ceiling: Unl
Heat Index: 10°   Visibility: 9mi
Dew Point:   Wind: 9mph
Humidity: 89%   Direction: 130°SE
Pressure: 29.94"   Gusts: NA
Location:  32.3599°N, 91.2529°W
Report Text: KTVR 220453Z AUTO 13008KT 9SM SCT090 10/08 A2994 RMK AO2 SLP146 T01000083
Loading
Personal Weather Stations






























Interactive Weather Map New forecast layout! Learn more

10-Day Weather Forecast

Advertisements
Track Severe Weather on mobile